Terminal Aerodrome Forecast
Issued by NWS Cleveland, OH

Home | Current Version | Previous Version | Text Only | Print | Product List | Glossary On
Versions: 1 2 3 4 5 6 7 8 9 10 11 12 13 14 15 16 17 18 19 20 21
000
FTUS41 KCLE 190000 AAA
TAFMFD
TAF AMD
KMFD 190021Z 1900/1924 27005KT P6SM OVC010
      TEMPO 1901/1905 OVC009
     FM191300 32005KT P6SM OVC010
     FM192200 VRB03KT P6SM OVC020=

USA.gov is the U.S. government's official web portal to all federal, state and local government web resources and services.